Time;durP1;ratioP1;P1;durP2;ratioP2;P2;SDS_P1;SDS_P2;PMS_P1;PMS_P2;Temp;Humidity;BMP_temperature;BMP_pressure;BME280_temperature;BME280_humidity;BME280_pressure;Samples;Min_cycle;Max_cycle;Signal;HPM_P1;HPM_P2
2023/05/20 00:00:22;;;;;;;7.80;7.00;;;;;;;16.53;98.72;101100.80;109918;1273;138736;-69
2023/05/20 00:02:49;;;;;;;7.50;6.90;;;;;;;16.47;99.43;101095.09;110226;1278;22090;-68
2023/05/20 00:05:16;;;;;;;7.10;6.50;;;;;;;16.40;99.66;101092.41;110149;1273;138355;-67
2023/05/20 00:07:43;;;;;;;7.70;6.90;;;;;;;16.32;99.96;101091.77;110029;1275;22191;-68
2023/05/20 00:10:10;;;;;;;8.40;7.50;;;;;;;16.17;100.00;101093.78;110178;1278;138965;-66
2023/05/20 00:12:37;;;;;;;7.80;7.20;;;;;;;16.08;100.00;101094.82;109950;1276;139284;-67
2023/05/20 00:15:05;;;;;;;7.80;7.10;;;;;;;16.02;100.00;101091.26;110216;1273;22415;-66
2023/05/20 00:17:31;;;;;;;8.10;7.30;;;;;;;15.99;100.00;101088.85;109957;1274;139192;-68
2023/05/20 00:19:59;;;;;;;7.60;6.90;;;;;;;15.96;100.00;101089.20;109964;1279;22510;-67
2023/05/20 00:22:25;;;;;;;14.10;7.30;;;;;;;15.93;100.00;101091.25;109975;1276;138319;-67
2023/05/20 00:24:52;;;;;;;8.20;7.60;;;;;;;15.90;100.00;101086.98;109950;1273;138824;-67
2023/05/20 00:27:19;;;;;;;6.50;5.90;;;;;;;15.89;100.00;101089.27;110182;1279;22122;-66
2023/05/20 00:29:45;;;;;;;7.30;6.60;;;;;;;15.87;100.00;101089.38;109964;1273;138282;-67
2023/05/20 00:32:13;;;;;;;8.40;7.30;;;;;;;15.82;100.00;101086.85;109951;1275;138448;-67
2023/05/20 00:34:42;;;;;;;8.40;7.60;;;;;;;15.78;100.00;101084.65;110076;1273;23183;-68
2023/05/20 00:37:09;;;;;;;9.40;7.50;;;;;;;15.79;100.00;101086.52;110168;1272;138966;-67
2023/05/20 00:39:35;;;;;;;11.20;7.60;;;;;;;15.81;100.00;101085.06;110179;1279;22204;-68
2023/05/20 00:42:02;;;;;;;7.80;7.10;;;;;;;15.85;100.00;101089.01;110062;1272;140194;-67
2023/05/20 00:44:29;;;;;;;6.60;6.10;;;;;;;15.83;100.00;101088.39;109970;1279;139417;-68
2023/05/20 00:46:56;;;;;;;8.20;7.40;;;;;;;15.82;100.00;101091.48;110053;1273;22267;-67
2023/05/20 00:49:23;;;;;;;7.80;7.00;;;;;;;15.88;100.00;101090.46;109978;1279;137950;-69
2023/05/20 00:51:50;;;;;;;7.00;6.60;;;;;;;15.92;100.00;101089.19;110216;1273;22352;-68
2023/05/20 00:54:18;;;;;;;6.70;6.20;;;;;;;15.92;100.00;101087.40;109940;1279;137564;-68
2023/05/20 00:56:45;;;;;;;7.70;6.90;;;;;;;15.95;100.00;101087.88;109945;1274;140270;-68
2023/05/20 00:59:12;;;;;;;6.70;6.10;;;;;;;16.02;100.00;101088.66;110091;1279;22318;-69
2023/05/20 01:01:39;;;;;;;6.70;6.20;;;;;;;16.10;100.00;101089.00;109944;1279;139413;-68
2023/05/20 01:04:06;;;;;;;7.30;6.60;;;;;;;16.11;100.00;101088.27;110015;1272;138909;-69
2023/05/20 01:06:33;;;;;;;6.50;5.80;;;;;;;16.10;100.00;101086.95;110074;1279;22419;-67
2023/05/20 01:09:00;;;;;;;7.00;6.00;;;;;;;16.12;100.00;101081.50;109838;1271;139255;-69
2023/05/20 01:11:49;;;;;;;6.70;6.10;;;;;;;16.12;100.00;101083.98;110070;1279;22181;-69
2023/05/20 01:14:19;;;;;;;7.10;6.20;;;;;;;16.05;100.00;101079.02;110000;1274;138449;-68
2023/05/20 01:16:48;;;;;;;7.60;6.20;;;;;;;15.90;100.00;101079.05;110023;1272;140184;-70
2023/05/20 01:19:34;;;;;;;7.80;5.90;;;;;;;15.88;100.00;101077.67;110119;1273;22950;-70
2023/05/20 01:22:06;;;;;;;6.70;6.10;;;;;;;15.82;100.00;101072.21;109974;1279;139124;-68
2023/05/20 01:24:33;;;;;;;6.30;5.80;;;;;;;15.85;100.00;101076.02;109951;1279;139218;-68
2023/05/20 01:27:00;;;;;;;6.30;5.70;;;;;;;15.93;100.00;101077.48;110082;1272;22317;-68
2023/05/20 01:29:27;;;;;;;7.90;6.70;;;;;;;16.00;100.00;101079.72;110072;1273;139024;-69
2023/05/20 01:31:56;;;;;;;6.20;5.60;;;;;;;16.03;100.00;101082.95;110053;1273;22956;-68
2023/05/20 01:34:24;;;;;;;10.80;5.80;;;;;;;15.87;100.00;101081.44;109995;1279;138840;-68
2023/05/20 01:36:52;;;;;;;7.10;6.60;;;;;;;15.86;100.00;101080.90;109942;1279;139011;-68
2023/05/20 01:39:20;;;;;;;6.40;5.80;;;;;;;15.98;100.00;101078.89;110071;1257;23664;-68
2023/05/20 01:41:48;;;;;;;5.10;4.70;;;;;;;15.99;99.61;101067.44;110058;1272;140857;-69
2023/05/20 01:44:15;;;;;;;5.80;5.30;;;;;;;16.05;98.71;101070.46;109911;1276;138432;-68
2023/05/20 01:46:48;;;;;;;6.60;5.20;;;;;;;16.09;98.23;101084.52;110022;1273;22399;-69
2023/05/20 01:49:15;;;;;;;5.30;4.50;;;;;;;15.99;98.38;101083.19;109945;1274;139567;-67
2023/05/20 01:51:43;;;;;;;4.30;3.90;;;;;;;15.95;98.32;101084.35;110220;1272;22356;-68
2023/05/20 01:54:10;;;;;;;5.10;4.60;;;;;;;15.94;97.89;101084.92;109872;1273;140045;-70
2023/05/20 01:56:36;;;;;;;4.40;3.90;;;;;;;15.90;97.88;101086.82;110030;1279;140147;-68
2023/05/20 01:59:03;;;;;;;5.30;4.40;;;;;;;15.90;97.85;101088.06;110071;1273;22998;-67
2023/05/20 02:01:30;;;;;;;4.20;3.90;;;;;;;15.91;97.54;101085.55;109927;1272;140277;-68
2023/05/20 02:03:57;;;;;;;7.10;3.70;;;;;;;15.91;97.24;101089.14;110096;1273;23036;-69
2023/05/20 02:06:24;;;;;;;4.20;3.90;;;;;;;15.92;96.82;101090.26;109970;1276;138061;-69
2023/05/20 02:08:50;;;;;;;3.70;3.60;;;;;;;15.75;97.64;101087.09;109967;1279;139479;-69
2023/05/20 02:11:17;;;;;;;4.30;3.80;;;;;;;15.68;97.94;101084.54;110043;1278;22664;-69
2023/05/20 02:13:44;;;;;;;4.10;3.80;;;;;;;15.68;97.74;101084.61;109976;1278;137844;-69
2023/05/20 02:16:11;;;;;;;3.60;3.40;;;;;;;15.72;97.15;101088.41;109975;1273;140602;-70
2023/05/20 02:18:38;;;;;;;3.50;3.30;;;;;;;15.74;96.76;101090.31;110069;1273;22269;-69
2023/05/20 02:21:05;;;;;;;4.10;3.70;;;;;;;15.69;96.89;101084.58;109880;1273;138563;-68
2023/05/20 02:23:31;;;;;;;4.20;3.90;;;;;;;15.61;97.28;101084.23;110348;1273;22297;-69
2023/05/20 02:25:58;;;;;;;4.30;4.00;;;;;;;15.48;97.65;101082.45;110088;1279;139559;-69
2023/05/20 02:28:25;;;;;;;3.70;3.30;;;;;;;15.30;98.91;101084.00;110211;1271;139170;-67
2023/05/20 02:30:54;;;;;;;3.60;3.20;;;;;;;15.29;99.17;101084.74;110072;1275;22119;-68
2023/05/20 02:33:20;;;;;;;3.90;3.70;;;;;;;15.31;99.06;101085.42;109986;1274;138470;-68
2023/05/20 02:35:47;;;;;;;6.00;4.00;;;;;;;15.35;98.44;101086.29;110171;1272;22215;-68
2023/05/20 02:38:14;;;;;;;4.00;3.70;;;;;;;15.42;97.86;101086.98;109982;1275;139618;-67
2023/05/20 02:40:44;;;;;;;4.00;3.70;;;;;;;15.42;97.39;101087.52;110180;1278;138795;-69
2023/05/20 02:43:11;;;;;;;3.50;3.30;;;;;;;15.43;97.15;101090.54;110250;1272;22680;-68
2023/05/20 02:45:38;;;;;;;5.20;4.70;;;;;;;15.37;97.32;101093.58;110113;1278;138062;-69
2023/05/20 02:48:05;;;;;;;4.90;4.40;;;;;;;15.39;97.15;101099.37;109999;1273;138412;-68
2023/05/20 02:50:32;;;;;;;5.10;4.60;;;;;;;15.51;96.55;101097.71;110039;1277;22394;-68
2023/05/20 02:52:59;;;;;;;4.80;4.30;;;;;;;15.61;96.20;101102.66;109960;1272;139876;-67
2023/05/20 02:55:27;;;;;;;6.60;5.30;;;;;;;15.72;95.57;101103.69;110082;1272;22280;-69
2023/05/20 02:57:54;;;;;;;5.90;4.80;;;;;;;15.75;94.47;101109.34;109962;1279;138031;-67
2023/05/20 03:00:22;;;;;;;8.90;6.00;;;;;;;15.76;93.91;101113.32;109997;1273;138090;-68
2023/05/20 03:02:49;;;;;;;7.20;6.50;;;;;;;15.78;93.56;101113.77;110167;1272;22218;-68
2023/05/20 03:05:16;;;;;;;7.80;5.70;;;;;;;15.83;92.97;101118.37;110030;1273;138478;-67
2023/05/20 03:07:42;;;;;;;7.00;5.10;;;;;;;16.07;91.57;101114.76;110131;1272;22104;-67
2023/05/20 03:10:09;;;;;;;12.80;6.70;;;;;;;16.33;89.65;101114.77;110022;1272;140661;-67
2023/05/20 03:12:37;;;;;;;6.60;6.00;;;;;;;16.50;87.92;101115.46;109990;1278;138801;-68
2023/05/20 03:15:05;;;;;;;8.30;6.60;;;;;;;16.67;86.47;101113.37;110075;1279;22977;-67
2023/05/20 03:17:33;;;;;;;7.60;6.90;;;;;;;16.85;85.10;101119.64;109967;1279;138342;-67
2023/05/20 03:20:00;;;;;;;8.40;7.60;;;;;;;16.93;85.11;101120.63;110083;1272;22878;-69
2023/05/20 03:22:27;;;;;;;8.60;7.80;;;;;;;17.23;84.66;101125.63;110225;1273;22122;-68
2023/05/20 03:24:55;;;;;;;7.00;6.50;;;;;;;17.62;81.22;101127.02;110046;1279;138741;-68
2023/05/20 03:27:25;;;;;;;7.00;6.40;;;;;;;17.84;79.37;101120.98;110284;1272;23259;-69
2023/05/20 03:29:53;;;;;;;6.30;5.80;;;;;;;17.99;77.29;101121.69;109978;1279;139547;-69
2023/05/20 03:32:20;;;;;;;8.20;6.40;;;;;;;17.99;76.36;101122.41;109915;1274;138151;-69
2023/05/20 03:34:47;;;;;;;5.10;4.80;;;;;;;18.05;76.28;101123.55;110327;1278;22261;-68
2023/05/20 03:37:14;;;;;;;5.90;5.20;;;;;;;18.34;74.33;101119.63;109950;1273;138709;-70
2023/05/20 03:39:41;;;;;;;4.60;4.30;;;;;;;18.44;73.14;101123.98;110043;1279;22894;-69
2023/05/20 03:42:08;;;;;;;5.10;4.70;;;;;;;18.63;72.17;101121.87;109875;1279;138022;-69
2023/05/20 03:44:35;;;;;;;4.40;4.00;;;;;;;18.78;71.28;101117.70;110001;1272;139249;-70
2023/05/20 03:47:02;;;;;;;6.50;4.00;;;;;;;18.78;70.28;101121.77;110021;1278;22323;-69
2023/05/20 03:49:29;;;;;;;4.20;4.00;;;;;;;18.67;70.52;101120.80;109919;1279;139215;-68
2023/05/20 03:51:55;;;;;;;3.90;3.60;;;;;;;18.76;70.61;101125.62;110026;1275;22207;-68
2023/05/20 03:54:22;;;;;;;5.00;3.60;;;;;;;18.92;69.60;101120.77;110230;1271;139682;-68
2023/05/20 03:56:50;;;;;;;4.60;3.80;;;;;;;18.99;69.11;101124.34;109955;1275;139946;-69
2023/05/20 03:59:18;;;;;;;3.30;3.10;;;;;;;19.12;68.72;101124.71;110089;1279;22949;-69
2023/05/20 04:01:45;;;;;;;3.60;3.30;;;;;;;19.35;67.74;101120.77;110009;1271;139033;-69
2023/05/20 04:04:12;;;;;;;3.40;3.20;;;;;;;19.46;66.87;101123.73;110104;1271;137090;-69
2023/05/20 04:06:39;;;;;;;3.70;3.30;;;;;;;19.52;66.51;101125.73;110437;1271;22195;-70
2023/05/20 04:09:06;;;;;;;3.10;2.80;;;;;;;19.57;66.16;101130.41;110014;1274;136814;-72
2023/05/20 04:11:33;;;;;;;3.30;3.10;;;;;;;19.66;65.77;101133.02;109988;1274;22323;-68
2023/05/20 04:14:00;;;;;;;4.10;3.80;;;;;;;19.77;65.63;101135.72;109615;1275;138345;-69
2023/05/20 04:16:28;;;;;;;3.60;3.30;;;;;;;20.07;64.10;101139.00;109781;1274;139683;-68
2023/05/20 04:18:57;;;;;;;3.90;2.90;;;;;;;20.14;64.04;101134.61;109737;1275;22879;-71
2023/05/20 04:21:25;;;;;;;2.80;2.50;;;;;;;20.29;62.99;101139.16;109592;1274;139408;-70
2023/05/20 04:23:51;;;;;;;3.60;3.30;;;;;;;20.28;63.47;101134.67;109833;1274;22333;-69
2023/05/20 04:26:19;;;;;;;3.50;3.30;;;;;;;20.42;62.92;101134.02;109648;1276;138512;-69
2023/05/20 04:28:48;;;;;;;2.90;2.80;;;;;;;20.67;62.12;101135.31;109624;1274;138749;-73
2023/05/20 04:31:15;;;;;;;3.30;2.80;;;;;;;20.77;61.45;101139.59;109802;1274;22339;-71
2023/05/20 04:33:43;;;;;;;3.50;3.20;;;;;;;20.82;61.18;101141.98;109694;1276;138499;-69
2023/05/20 04:36:14;;;;;;;2.90;2.60;;;;;;;20.93;61.25;101141.52;109680;1275;139371;-71
2023/05/20 04:38:43;;;;;;;3.60;3.30;;;;;;;21.22;60.58;101143.66;109715;1276;22332;-68
2023/05/20 04:41:10;;;;;;;3.00;2.60;;;;;;;21.49;58.81;101147.86;109691;1274;137736;-70
2023/05/20 04:43:38;;;;;;;3.30;2.50;;;;;;;21.27;58.68;101143.23;109792;1275;22626;-70
2023/05/20 04:46:06;;;;;;;3.70;3.40;;;;;;;21.02;60.06;101154.40;109690;1275;139285;-69
2023/05/20 04:48:33;;;;;;;3.40;2.80;;;;;;;20.83;61.07;101154.05;109724;1274;140209;-69
2023/05/20 04:51:00;;;;;;;8.20;4.50;;;;;;;20.91;60.88;101155.52;109835;1274;22314;-70
2023/05/20 04:53:27;;;;;;;4.10;3.40;;;;;;;20.81;61.36;101152.96;109697;1275;140962;-69
2023/05/20 04:55:55;;;;;;;3.20;2.80;;;;;;;20.82;61.49;101141.92;109834;1274;22374;-71
2023/05/20 04:58:23;;;;;;;3.50;2.90;;;;;;;21.04;60.63;101150.05;109636;1276;139038;-70
2023/05/20 05:00:51;;;;;;;5.10;3.90;;;;;;;21.07;60.51;101149.25;109675;1274;138892;-73
2023/05/20 05:03:18;;;;;;;3.30;3.20;;;;;;;21.08;60.34;101152.95;109745;1274;23012;-72
2023/05/20 05:05:45;;;;;;;3.20;2.60;;;;;;;21.07;60.36;101151.14;109643;1274;140973;-72
2023/05/20 05:08:11;;;;;;;2.80;2.60;;;;;;;20.95;60.55;101137.43;109680;1274;139787;-71
2023/05/20 05:10:44;;;;;;;2.60;2.40;;;;;;;21.09;60.75;101149.63;109625;1275;22328;-75
2023/05/20 05:13:11;;;;;;;3.10;2.70;;;;;;;21.26;59.75;101146.30;109551;1274;137837;-73
2023/05/20 05:15:37;;;;;;;2.60;2.40;;;;;;;21.40;59.46;101145.81;109755;1275;23054;-73
2023/05/20 05:18:04;;;;;;;4.90;2.60;;;;;;;21.66;58.42;101141.13;109685;1274;138115;-74
2023/05/20 05:20:32;;;;;;;4.10;2.40;;;;;;;22.00;57.20;101143.58;109642;1274;138279;-70
2023/05/20 05:22:59;;;;;;;2.50;2.40;;;;;;;22.20;55.88;101147.52;109885;1273;22808;-70
2023/05/20 05:25:27;;;;;;;2.30;1.90;;;;;;;22.05;55.08;101149.31;109681;1276;138142;-71
2023/05/20 05:27:54;;;;;;;2.80;2.60;;;;;;;21.70;55.74;101154.55;109754;1274;22347;-70
2023/05/20 05:30:21;;;;;;;4.90;2.90;;;;;;;21.41;56.33;101149.36;109583;1274;140279;-71
2023/05/20 05:32:48;;;;;;;2.80;2.60;;;;;;;21.27;56.63;101151.83;109673;1274;139902;-70
2023/05/20 05:35:16;;;;;;;2.20;2.00;;;;;;;21.20;56.67;101156.30;109771;1274;22370;-71
2023/05/20 05:37:42;;;;;;;2.40;2.00;;;;;;;21.18;56.47;101155.79;109663;1275;137966;-72
2023/05/20 05:40:10;;;;;;;2.40;2.30;;;;;;;21.22;56.50;101156.00;109615;1277;138850;-78
2023/05/20 05:42:37;;;;;;;2.70;2.60;;;;;;;21.27;56.16;101157.42;109862;1274;22865;-76
2023/05/20 05:45:06;;;;;;;2.60;2.40;;;;;;;21.48;55.81;101155.75;109665;1273;137542;-77
2023/05/20 05:47:36;;;;;;;3.10;2.10;;;;;;;21.60;54.53;101153.11;109935;1273;22349;-78
2023/05/20 05:50:03;;;;;;;2.90;1.70;;;;;;;21.54;54.46;101154.08;109723;1273;138300;-76
2023/05/20 05:52:31;;;;;;;6.80;2.80;;;;;;;21.51;55.23;101141.01;109716;1273;139085;-73
2023/05/20 05:54:59;;;;;;;4.80;2.80;;;;;;;21.82;53.86;101143.41;109920;1273;22348;-75
2023/05/20 05:57:26;;;;;;;2.40;2.20;;;;;;;22.13;52.48;101154.61;109594;1273;138348;-72
2023/05/20 06:01:44;;;;;;;2.30;2.10;;;;;;;22.17;51.99;101154.63;103577;1305;546043;-74
2023/05/20 06:04:11;;;;;;;1.90;1.70;;;;;;;22.23;51.67;101148.10;105824;1284;138236;-75
2023/05/20 06:06:40;;;;;;;1.90;1.80;;;;;;;22.47;50.46;101153.73;105915;1286;22660;-73
2023/05/20 06:09:07;;;;;;;1.90;1.80;;;;;;;22.70;49.34;101155.23;106056;1266;140193;-74
2023/05/20 06:11:34;;;;;;;1.70;1.20;;;;;;;22.60;49.16;101151.91;106682;1283;22533;-74
2023/05/20 06:14:02;;;;;;;1.60;1.50;;;;;;;22.21;49.53;101150.64;105697;1282;137013;-75
2023/05/20 06:16:28;;;;;;;3.20;1.70;;;;;;;22.03;50.17;101150.41;105865;1279;155884;-74
2023/05/20 06:18:57;;;;;;;4.10;1.60;;;;;;;21.95;50.05;101150.22;108395;1279;22609;-74
2023/05/20 06:21:31;;;;;;;2.70;1.70;;;;;;;21.82;50.55;101143.05;106295;1280;137936;-70
2023/05/20 06:23:58;;;;;;;2.80;2.30;;;;;;;21.89;50.01;101141.65;106501;1279;22523;-73
2023/05/20 06:26:26;;;;;;;1.60;1.50;;;;;;;21.96;49.57;101141.02;107816;1279;137514;-74
2023/05/20 06:28:53;;;;;;;1.40;1.30;;;;;;;22.02;49.28;101145.08;105943;1275;139114;-77
2023/05/20 06:31:20;;;;;;;6.50;1.50;;;;;;;22.13;48.90;101140.77;109632;1279;22335;-75
2023/05/20 06:33:48;;;;;;;8.30;2.50;;;;;;;22.07;48.62;101141.97;109485;1279;137781;-79
2023/05/20 06:36:16;;;;;;;2.20;2.10;;;;;;;22.02;48.43;101144.21;109345;1279;137560;-74
2023/05/20 06:38:43;;;;;;;1.60;1.50;;;;;;;22.00;48.55;101147.23;109448;1279;22351;-73
2023/05/20 06:41:13;;;;;;;1.80;1.50;;;;;;;21.93;48.22;101149.70;109418;1281;137644;-73
2023/05/20 06:43:40;;;;;;;5.80;1.50;;;;;;;21.92;47.90;101146.69;109640;1279;22356;-76
2023/05/20 06:46:09;;;;;;;1.60;1.50;;;;;;;22.09;46.98;101149.60;109444;1281;140559;-73
2023/05/20 06:48:41;;;;;;;2.30;2.10;;;;;;;22.00;46.53;101149.88;109405;1282;138613;-72
2023/05/20 06:51:08;;;;;;;2.00;1.60;;;;;;;22.03;46.67;101151.23;109471;1279;23171;-76
2023/05/20 06:53:35;;;;;;;2.40;1.80;;;;;;;22.11;46.83;101143.16;109319;1279;137237;-73
2023/05/20 06:56:02;;;;;;;3.70;2.40;;;;;;;22.14;46.51;101147.67;109404;1279;139079;-75
2023/05/20 06:58:31;;;;;;;2.00;1.80;;;;;;;22.14;46.10;101138.23;109559;1278;22345;-76
2023/05/20 07:00:59;;;;;;;3.70;1.90;;;;;;;22.14;45.69;101138.12;109449;1278;137770;-76
2023/05/20 07:03:26;;;;;;;2.20;2.00;;;;;;;22.24;45.83;101141.45;109593;1278;22330;-74
2023/05/20 07:05:53;;;;;;;2.80;1.80;;;;;;;22.56;44.97;101139.09;109586;1278;137408;-78
2023/05/20 07:08:20;;;;;;;3.50;1.80;;;;;;;22.69;44.34;101144.16;109415;1279;138144;-75
2023/05/20 07:10:47;;;;;;;3.80;1.90;;;;;;;22.68;44.21;101139.77;109500;1279;22319;-75
2023/05/20 07:13:18;;;;;;;5.50;2.00;;;;;;;22.67;43.80;101134.09;109522;1278;137569;-76
2023/05/20 07:15:46;;;;;;;3.90;1.90;;;;;;;22.66;44.07;101132.55;109692;1278;22335;-75
2023/05/20 07:18:14;;;;;;;8.60;2.80;;;;;;;22.73;43.47;101135.05;109577;1279;137370;-75
2023/05/20 07:20:43;;;;;;;2.10;1.80;;;;;;;22.83;43.63;101132.45;109544;1280;137492;-75
2023/05/20 07:23:19;;;;;;;6.00;2.20;;;;;;;22.84;42.76;101149.31;109628;1280;22358;-74
2023/05/20 07:25:52;;;;;;;5.40;2.00;;;;;;;22.53;42.76;101141.15;109662;1278;138235;-76
2023/05/20 07:28:21;;;;;;;6.90;2.20;;;;;;;22.27;43.22;101140.85;109674;1276;138331;-73
2023/05/20 07:30:49;;;;;;;4.00;1.90;;;;;;;22.15;43.32;101147.70;109717;1276;22315;-75
2023/05/20 07:33:22;;;;;;;5.40;1.70;;;;;;;22.02;42.99;101146.66;109563;1276;138970;-75
2023/05/20 07:35:49;;;;;;;6.00;1.90;;;;;;;21.84;42.85;101137.27;109799;1276;22477;-75
2023/05/20 07:38:17;;;;;;;2.40;1.80;;;;;;;21.68;42.89;101142.30;109549;1276;140521;-74
2023/05/20 07:40:45;;;;;;;2.30;1.60;;;;;;;21.55;42.81;101140.88;109483;1276;137809;-74
2023/05/20 07:43:13;;;;;;;2.00;1.70;;;;;;;21.50;42.84;101151.17;109654;1276;22802;-72
2023/05/20 07:45:41;;;;;;;2.20;1.60;;;;;;;21.42;43.62;101147.90;109746;1272;138796;-75
2023/05/20 07:48:09;;;;;;;4.10;1.80;;;;;;;21.36;43.94;101148.92;109863;1271;138366;-73
2023/05/20 07:50:38;;;;;;;4.50;1.90;;;;;;;21.26;44.40;101148.02;109928;1272;22376;-74
2023/05/20 07:53:05;;;;;;;5.50;2.40;;;;;;;21.12;44.84;101149.23;109736;1272;137475;-74
2023/05/20 07:55:34;;;;;;;2.30;2.20;;;;;;;21.01;45.33;101142.07;109935;1272;24390;-73
2023/05/20 07:58:03;;;;;;;4.30;2.00;;;;;;;21.03;45.51;101151.55;109737;1272;137619;-73
2023/05/20 08:00:32;;;;;;;4.20;1.70;;;;;;;21.00;45.28;101144.02;109767;1271;137839;-73
2023/05/20 08:03:00;;;;;;;5.50;2.30;;;;;;;20.89;45.46;101135.04;109944;1272;22545;-75
2023/05/20 08:05:38;;;;;;;3.70;1.90;;;;;;;20.92;44.74;101135.16;109818;1272;137139;-72
2023/05/20 08:08:05;;;;;;;2.20;1.50;;;;;;;21.00;43.00;101138.75;109767;1272;138548;-73
2023/05/20 08:10:41;;;;;;;3.40;1.90;;;;;;;21.05;43.15;101133.27;109870;1275;22424;-78
2023/05/20 08:13:08;;;;;;;4.20;2.50;;;;;;;21.08;43.12;101131.88;109829;1271;137554;-77
2023/05/20 08:15:36;;;;;;;6.00;1.70;;;;;;;21.11;43.00;101131.28;109902;1273;22730;-73
2023/05/20 08:18:03;;;;;;;2.70;1.60;;;;;;;21.12;42.75;101133.38;109862;1273;139472;-76
2023/05/20 08:20:30;;;;;;;7.10;2.00;;;;;;;21.19;42.62;101132.59;109864;1272;138368;-76
2023/05/20 08:22:57;;;;;;;5.00;1.70;;;;;;;21.26;42.41;101127.73;110015;1272;22316;-75
2023/05/20 08:25:24;;;;;;;7.10;1.50;;;;;;;21.28;42.66;101130.81;109879;1272;138883;-73
2023/05/20 08:27:51;;;;;;;2.60;1.60;;;;;;;21.32;42.26;101131.39;110040;1271;22432;-74
2023/05/20 08:30:18;;;;;;;2.10;1.10;;;;;;;21.27;41.85;101132.96;109823;1271;138620;-74
2023/05/20 08:32:47;;;;;;;3.10;1.60;;;;;;;21.21;41.92;101128.67;109795;1271;138042;-72
2023/05/20 08:35:14;;;;;;;4.70;1.50;;;;;;;21.14;41.94;101126.13;109925;1271;22328;-76
2023/05/20 08:37:41;;;;;;;4.90;1.50;;;;;;;21.08;41.78;101125.96;109859;1275;138518;-76
2023/05/20 08:40:08;;;;;;;2.60;1.30;;;;;;;21.08;41.73;101133.60;109832;1272;138728;-76
2023/05/20 08:42:35;;;;;;;2.70;1.50;;;;;;;21.17;41.82;101124.79;109932;1272;22409;-75
2023/05/20 08:45:03;;;;;;;4.10;1.50;;;;;;;21.19;40.98;101119.61;109888;1271;137600;-73
2023/05/20 08:47:30;;;;;;;7.10;1.80;;;;;;;21.14;39.79;101116.97;110006;1272;22369;-75
2023/05/20 08:49:57;;;;;;;11.20;1.10;;;;;;;21.28;40.26;101126.22;109820;1271;138060;-75
2023/05/20 08:52:24;;;;;;;2.80;1.50;;;;;;;21.42;39.02;101117.48;109786;1271;139313;-72
2023/05/20 08:54:52;;;;;;;2.20;1.00;;;;;;;21.39;39.05;101105.01;109982;1272;22127;-74
2023/05/20 08:57:20;;;;;;;2.40;1.50;;;;;;;21.39;39.37;101105.61;109810;1271;137493;-74
2023/05/20 08:59:46;;;;;;;2.20;0.70;;;;;;;21.39;39.10;101112.86;109951;1273;22306;-73
2023/05/20 09:02:13;;;;;;;11.10;1.40;;;;;;;21.37;38.85;101112.77;109879;1272;139212;-73
2023/05/20 09:04:40;;;;;;;2.50;1.30;;;;;;;21.35;38.68;101108.19;109910;1272;139683;-76
2023/05/20 09:07:07;;;;;;;2.60;1.70;;;;;;;21.38;38.32;101111.38;109931;1272;22171;-75
2023/05/20 09:09:35;;;;;;;3.00;1.20;;;;;;;21.32;37.89;101114.95;109789;1271;137660;-74
2023/05/20 09:12:02;;;;;;;1.50;1.10;;;;;;;21.30;38.59;101107.87;110000;1271;22127;-76
2023/05/20 09:14:30;;;;;;;2.90;0.90;;;;;;;21.31;38.59;101108.81;109898;1275;22304;-75
2023/05/20 09:16:58;;;;;;;5.30;0.70;;;;;;;21.29;38.37;101114.61;109823;1272;137875;-74
2023/05/20 09:19:25;;;;;;;3.40;1.30;;;;;;;21.28;38.23;101112.42;109977;1272;22382;-76
2023/05/20 09:21:57;;;;;;;3.60;1.00;;;;;;;21.24;38.56;101115.34;109852;1273;137591;-75
2023/05/20 09:24:25;;;;;;;1.50;1.10;;;;;;;21.29;38.86;101116.63;109869;1272;138493;-74
2023/05/20 09:26:52;;;;;;;1.90;0.80;;;;;;;21.33;38.63;101115.56;109989;1272;22340;-73
2023/05/20 09:29:20;;;;;;;2.80;1.10;;;;;;;21.27;38.31;101118.48;109807;1272;138885;-75
2023/05/20 09:31:48;;;;;;;4.90;1.10;;;;;;;21.23;38.19;101120.57;109975;1273;22386;-74
2023/05/20 09:34:16;;;;;;;6.50;1.10;;;;;;;21.20;38.32;101117.80;109816;1271;137600;-73
2023/05/20 09:36:44;;;;;;;8.00;1.10;;;;;;;21.18;38.87;101110.99;109888;1272;138777;-73
2023/05/20 09:39:16;;;;;;;3.20;1.70;;;;;;;21.17;39.47;101119.80;109933;1272;22313;-74
2023/05/20 09:41:53;;;;;;;2.70;0.90;;;;;;;21.18;40.11;101119.21;109879;1271;137885;-73
2023/05/20 09:44:21;;;;;;;3.70;0.70;;;;;;;21.20;38.91;101127.29;109875;1271;137829;-75
2023/05/20 09:46:50;;;;;;;1.80;1.00;;;;;;;21.23;37.71;101114.55;109928;1271;22084;-73
2023/05/20 09:49:18;;;;;;;3.40;0.70;;;;;;;21.24;37.73;101123.56;109811;1272;139658;-75
2023/05/20 09:51:46;;;;;;;2.50;0.80;;;;;;;21.24;38.58;101115.98;109979;1272;22245;-79
2023/05/20 09:54:16;;;;;;;1.50;1.10;;;;;;;21.33;38.95;101111.39;109887;1272;137732;-74
2023/05/20 09:56:45;;;;;;;0.70;0.60;;;;;;;21.37;38.84;101112.40;109852;1272;137857;-74
2023/05/20 09:59:15;;;;;;;8.00;0.80;;;;;;;21.31;39.10;101108.36;109925;1272;22317;-75
2023/05/20 10:01:43;;;;;;;6.50;0.90;;;;;;;21.25;40.09;101103.30;109847;1272;137673;-73
2023/05/20 10:04:14;;;;;;;0.80;0.50;;;;;;;21.30;41.06;101103.25;109786;1272;138492;-76
2023/05/20 10:07:00;;;;;;;1.80;1.20;;;;;;;21.40;41.49;101098.83;110015;1271;22311;-76
2023/05/20 10:09:52;;;;;;;2.60;0.70;;;;;;;21.54;40.76;101100.74;109830;1272;138845;-77
2023/05/20 10:12:32;;;;;;;4.20;0.70;;;;;;;21.64;39.85;101098.60;109824;1273;137798;-73
2023/05/20 10:15:19;;;;;;;1.30;1.20;;;;;;;21.65;39.69;101109.10;109919;1274;22342;-75
2023/05/20 10:18:08;;;;;;;6.70;0.80;;;;;;;21.63;39.68;101102.60;109842;1274;137736;-76
2023/05/20 10:20:46;;;;;;;8.70;1.00;;;;;;;21.61;39.90;101096.27;109895;1272;139310;-74
2023/05/20 10:23:23;;;;;;;2.20;0.60;;;;;;;21.53;40.13;101088.96;109904;1272;22456;-77
2023/05/20 10:25:52;;;;;;;4.90;1.20;;;;;;;21.58;40.15;101090.73;109779;1272;138655;-76
2023/05/20 10:28:31;;;;;;;4.30;0.90;;;;;;;21.50;39.70;101093.09;109724;1272;139759;-75
2023/05/20 10:30:59;;;;;;;3.10;0.70;;;;;;;21.52;39.37;101093.39;109991;1273;22330;-79
2023/05/20 10:33:27;;;;;;;2.80;0.90;;;;;;;21.51;39.55;101095.02;109797;1273;137695;-74
2023/05/20 10:35:58;;;;;;;3.20;0.90;;;;;;;21.47;40.13;101098.77;109898;1272;23227;-74
2023/05/20 10:38:25;;;;;;;0.60;0.60;;;;;;;21.35;40.51;101083.45;109811;1271;137610;-77
2023/05/20 10:40:52;;;;;;;1.90;0.70;;;;;;;21.42;40.07;101088.55;109789;1272;138017;-74
2023/05/20 10:43:29;;;;;;;4.30;1.20;;;;;;;21.41;40.39;101080.19;109862;1272;22541;-75
2023/05/20 10:45:57;;;;;;;5.00;1.30;;;;;;;21.47;40.85;101081.45;109905;1271;137747;-74
2023/05/20 10:48:30;;;;;;;5.70;1.00;;;;;;;21.56;40.18;101085.93;109756;1272;138250;-74
2023/05/20 10:51:05;;;;;;;1.80;0.80;;;;;;;21.55;40.12;101085.37;109832;1271;22315;-76
2023/05/20 10:53:39;;;;;;;5.50;1.70;;;;;;;21.49;40.26;101087.20;109774;1272;137721;-75
2023/05/20 10:56:17;;;;;;;3.20;1.00;;;;;;;21.51;39.89;101079.73;109750;1272;138841;-75
2023/05/20 10:58:44;;;;;;;2.00;0.60;;;;;;;21.56;39.78;101086.27;109988;1271;23067;-73
2023/05/20 11:01:12;;;;;;;4.20;0.80;;;;;;;21.54;39.25;101093.65;109790;1275;139402;-74
2023/05/20 11:03:42;;;;;;;3.60;0.40;;;;;;;21.51;39.06;101085.18;109996;1272;22528;-82
2023/05/20 11:06:12;;;;;;;2.20;0.60;;;;;;;21.46;39.62;101088.13;109754;1271;137778;-75
2023/05/20 11:08:44;;;;;;;4.50;0.60;;;;;;;21.46;39.69;101075.77;109930;1272;138639;-76
2023/05/20 11:11:12;;;;;;;1.50;0.50;;;;;;;21.47;39.43;101081.16;109951;1275;22915;-84
2023/05/20 11:13:40;;;;;;;2.90;0.60;;;;;;;21.51;39.13;101086.86;109891;1271;139428;-77
2023/05/20 11:16:06;;;;;;;4.30;0.70;;;;;;;21.56;39.34;101087.35;109786;1273;139053;-75
2023/05/20 11:18:34;;;;;;;3.80;0.50;;;;;;;21.61;39.38;101080.81;110136;1271;22088;-76